createdAt,value
2017-12-26T00:02:12.101Z,5.40
2017-12-26T00:04:39.666Z,5.40
2017-12-26T00:07:07.186Z,5.40
2017-12-26T00:09:35.489Z,5.30
2017-12-26T00:12:03.007Z,5.30
2017-12-26T00:14:31.319Z,5.30
2017-12-26T00:16:58.854Z,5.30
2017-12-26T00:19:27.189Z,5.30
2017-12-26T00:21:54.738Z,5.30
2017-12-26T00:24:22.301Z,5.30
2017-12-26T00:26:49.870Z,5.30
2017-12-26T00:29:17.460Z,5.30
2017-12-26T00:31:45.210Z,5.40
2017-12-26T00:34:12.773Z,5.30
2017-12-26T00:36:40.328Z,5.30
2017-12-26T00:39:07.861Z,5.30
2017-12-26T00:41:35.420Z,5.30
2017-12-26T00:44:02.970Z,5.30
2017-12-26T00:46:30.566Z,5.30
2017-12-26T00:48:58.112Z,5.30
2017-12-26T00:51:25.670Z,5.30
2017-12-26T00:53:53.252Z,5.30
2017-12-26T00:56:20.912Z,5.30
2017-12-26T00:58:48.428Z,5.30
2017-12-26T01:01:16.742Z,5.20
2017-12-26T01:03:44.556Z,5.20
2017-12-26T01:06:12.131Z,5.10
2017-12-26T01:08:40.469Z,5.00
2017-12-26T01:11:08.042Z,5.00
2017-12-26T01:13:35.582Z,5.00
2017-12-26T01:16:03.236Z,4.90
2017-12-26T01:18:30.766Z,4.90
2017-12-26T01:20:58.367Z,4.80
2017-12-26T01:23:25.904Z,4.90
2017-12-26T01:25:53.472Z,4.80
2017-12-26T01:28:21.009Z,4.80
2017-12-26T01:30:48.599Z,4.70
2017-12-26T01:33:16.156Z,4.70
2017-12-26T01:35:43.700Z,4.60
2017-12-26T01:38:11.278Z,4.60
2017-12-26T01:40:38.844Z,4.60
2017-12-26T01:43:06.384Z,4.60
2017-12-26T01:45:33.976Z,4.50
2017-12-26T01:48:01.521Z,4.50
2017-12-26T01:50:29.082Z,4.50
2017-12-26T01:52:56.649Z,4.50
2017-12-26T01:55:24.177Z,4.50
2017-12-26T01:57:51.728Z,4.40
2017-12-26T02:00:20.066Z,4.30
2017-12-26T02:02:47.644Z,4.30
2017-12-26T02:05:15.188Z,4.20
2017-12-26T02:07:42.767Z,4.20
2017-12-26T02:10:10.303Z,4.10
2017-12-26T02:12:37.887Z,4.00
2017-12-26T02:15:07.770Z,4.00
2017-12-26T02:17:35.353Z,4.00
2017-12-26T02:20:02.902Z,3.90
2017-12-26T02:22:30.451Z,4.00
2017-12-26T02:24:58.012Z,4.00
2017-12-26T02:27:25.564Z,4.10
2017-12-26T02:29:53.242Z,4.10
2017-12-26T02:32:20.809Z,4.10
2017-12-26T02:34:48.455Z,4.10
2017-12-26T02:37:16.003Z,4.10
2017-12-26T02:39:43.540Z,4.20
2017-12-26T02:42:11.120Z,4.10
2017-12-26T02:44:38.684Z,4.20
2017-12-26T02:47:06.246Z,4.20
2017-12-26T02:49:33.833Z,4.20
2017-12-26T02:52:01.394Z,4.10
2017-12-26T02:54:29.218Z,4.10
2017-12-26T02:56:56.784Z,4.10
2017-12-26T02:59:24.359Z,4.00
2017-12-26T03:01:52.026Z,4.10
2017-12-26T03:04:19.564Z,4.00
2017-12-26T03:06:47.092Z,4.00
2017-12-26T03:09:14.645Z,4.00
2017-12-26T03:11:42.162Z,4.00
2017-12-26T03:14:09.838Z,4.00
2017-12-26T03:16:37.356Z,4.00
2017-12-26T03:19:05.679Z,4.10
2017-12-26T03:21:33.224Z,4.10
2017-12-26T03:24:00.792Z,4.20
2017-12-26T03:26:28.336Z,4.10
2017-12-26T03:28:55.908Z,4.20
2017-12-26T03:31:23.436Z,4.20
2017-12-26T03:33:51.740Z,4.10
2017-12-26T03:36:19.273Z,4.00
2017-12-26T03:38:47.561Z,3.70
2017-12-26T03:41:15.964Z,3.60
2017-12-26T03:43:43.482Z,3.60
2017-12-26T03:46:11.176Z,3.50
2017-12-26T03:48:38.741Z,3.50
2017-12-26T03:51:06.265Z,3.50
2017-12-26T03:53:33.861Z,3.50
2017-12-26T03:56:01.394Z,3.60
2017-12-26T03:58:29.684Z,3.80
2017-12-26T04:00:57.968Z,3.80
2017-12-26T04:03:25.536Z,3.70
2017-12-26T04:05:53.054Z,3.60
2017-12-26T04:08:20.565Z,3.50
2017-12-26T04:10:48.132Z,3.70
2017-12-26T04:13:15.679Z,3.80
2017-12-26T04:15:43.253Z,3.60
2017-12-26T04:18:10.801Z,3.80
2017-12-26T04:20:38.323Z,4.00
2017-12-26T04:23:06.637Z,3.90
2017-12-26T04:25:34.150Z,3.90
2017-12-26T04:28:01.673Z,4.20
2017-12-26T04:30:29.216Z,4.10
2017-12-26T04:32:58.006Z,4.20
2017-12-26T04:35:25.524Z,4.30
2017-12-26T04:37:53.846Z,4.70
2017-12-26T04:40:21.385Z,4.70
2017-12-26T04:42:49.683Z,4.60
2017-12-26T04:45:17.197Z,4.60
2017-12-26T04:47:44.729Z,4.70
2017-12-26T04:50:12.243Z,4.60
2017-12-26T04:52:39.785Z,4.50
2017-12-26T04:55:07.294Z,4.50
2017-12-26T04:57:34.824Z,4.60
2017-12-26T05:00:03.172Z,4.70
2017-12-26T05:02:30.702Z,4.70
2017-12-26T05:04:58.239Z,4.80
2017-12-26T05:07:25.817Z,4.80
2017-12-26T05:09:53.335Z,4.90
2017-12-26T05:12:21.752Z,5.00
2017-12-26T05:14:49.318Z,5.00
2017-12-26T05:17:16.849Z,5.00
2017-12-26T05:19:44.429Z,5.00
2017-12-26T05:22:11.993Z,5.10
2017-12-26T05:24:39.512Z,5.20
2017-12-26T05:27:07.105Z,5.10
2017-12-26T05:29:34.634Z,5.30
2017-12-26T05:32:08.065Z,5.20
2017-12-26T05:34:35.631Z,5.30
2017-12-26T05:37:03.241Z,5.40
2017-12-26T05:39:30.778Z,5.40
2017-12-26T05:41:58.305Z,5.30
2017-12-26T05:44:25.872Z,5.30
2017-12-26T05:46:53.382Z,5.30
2017-12-26T05:49:20.914Z,5.30
2017-12-26T05:51:48.448Z,5.30
2017-12-26T05:54:16.025Z,5.50
2017-12-26T05:56:43.572Z,5.40
2017-12-26T05:59:11.098Z,5.40
2017-12-26T06:01:39.385Z,5.40
2017-12-26T06:04:06.937Z,5.40
2017-12-26T06:06:34.472Z,5.40
2017-12-26T06:09:02.091Z,5.40
2017-12-26T06:11:29.604Z,5.50
2017-12-26T06:13:57.151Z,5.50
2017-12-26T06:16:24.666Z,5.60
2017-12-26T06:18:52.232Z,5.60
2017-12-26T06:21:19.803Z,5.60
2017-12-26T06:23:47.339Z,5.60
2017-12-26T06:26:14.861Z,5.50
2017-12-26T06:28:42.505Z,5.60
2017-12-26T06:31:10.022Z,5.50
2017-12-26T06:33:38.413Z,5.70
2017-12-26T06:36:05.939Z,5.70
2017-12-26T06:38:33.460Z,5.70
2017-12-26T06:41:00.992Z,5.70
2017-12-26T06:43:28.531Z,5.70
2017-12-26T06:45:56.832Z,5.60
2017-12-26T06:48:24.404Z,5.60
2017-12-26T06:50:51.956Z,5.60
2017-12-26T06:53:19.463Z,5.80
2017-12-26T06:55:47.014Z,5.70
2017-12-26T06:58:14.546Z,5.70
2017-12-26T07:00:42.081Z,5.70
2017-12-26T07:03:10.365Z,5.60
2017-12-26T07:05:37.933Z,5.60
2017-12-26T07:08:05.465Z,5.50
2017-12-26T07:10:33.757Z,5.30
2017-12-26T07:13:02.154Z,5.30
2017-12-26T07:15:29.689Z,5.30
2017-12-26T07:17:57.995Z,5.30
2017-12-26T07:20:31.254Z,5.30
2017-12-26T07:22:58.812Z,5.20
2017-12-26T07:25:26.366Z,5.20
2017-12-26T07:27:53.902Z,5.20
2017-12-26T07:30:21.434Z,5.10
2017-12-26T07:32:48.945Z,5.20
2017-12-26T07:35:16.542Z,5.30
2017-12-26T07:37:44.923Z,5.50
2017-12-26T07:40:12.441Z,5.60
2017-12-26T07:42:39.996Z,5.70
2017-12-26T07:45:07.512Z,5.70
2017-12-26T07:47:35.149Z,5.80
2017-12-26T07:50:03.438Z,5.80
2017-12-26T07:52:31.009Z,5.80
2017-12-26T07:54:58.540Z,5.90
2017-12-26T07:57:26.849Z,6.00
2017-12-26T07:59:54.402Z,6.10
2017-12-26T08:02:21.948Z,6.10
2017-12-26T08:04:50.241Z,6.20
2017-12-26T08:07:17.809Z,6.20
2017-12-26T08:09:45.340Z,6.40
2017-12-26T08:12:13.637Z,6.30
2017-12-26T08:14:41.204Z,6.30
2017-12-26T08:17:08.738Z,6.40
2017-12-26T08:19:37.046Z,6.40
2017-12-26T08:22:04.603Z,6.40
2017-12-26T08:24:32.160Z,6.50
2017-12-26T08:26:59.686Z,6.50
2017-12-26T08:29:27.202Z,6.50
2017-12-26T08:31:55.590Z,6.50
2017-12-26T08:34:23.123Z,6.50
2017-12-26T08:36:50.633Z,6.50
2017-12-26T08:39:18.169Z,6.60
2017-12-26T08:41:45.687Z,6.60
2017-12-26T08:44:14.089Z,6.70
2017-12-26T08:46:41.619Z,6.60
2017-12-26T08:49:10.327Z,6.70
2017-12-26T08:51:37.849Z,6.70
2017-12-26T08:54:05.397Z,6.80
2017-12-26T08:56:32.914Z,6.80
2017-12-26T08:59:01.081Z,6.80
2017-12-26T09:01:28.650Z,6.90
2017-12-26T09:03:56.180Z,7.00
2017-12-26T09:06:24.498Z,7.10
2017-12-26T09:08:52.042Z,7.10
2017-12-26T09:11:19.566Z,7.20
2017-12-26T09:13:47.181Z,7.20
2017-12-26T09:16:14.721Z,7.20
2017-12-26T09:18:42.285Z,7.20
2017-12-26T09:21:09.804Z,7.10
2017-12-26T09:23:37.713Z,7.10
2017-12-26T09:26:05.284Z,7.10
2017-12-26T09:28:32.850Z,7.10
2017-12-26T09:31:00.380Z,7.10
2017-12-26T09:33:28.668Z,6.90
2017-12-26T09:35:56.204Z,6.90
2017-12-26T09:38:24.502Z,6.80
2017-12-26T09:40:52.090Z,6.70
2017-12-26T09:43:19.646Z,6.60
2017-12-26T09:45:47.201Z,6.60
2017-12-26T09:48:14.724Z,6.50
2017-12-26T09:50:42.540Z,6.50
2017-12-26T09:53:10.079Z,6.40
2017-12-26T09:55:37.628Z,6.40
2017-12-26T09:58:05.942Z,6.30
2017-12-26T10:00:33.498Z,6.30
2017-12-26T10:03:01.099Z,6.30
2017-12-26T10:05:28.709Z,6.30
2017-12-26T10:07:56.269Z,6.20
2017-12-26T10:10:23.802Z,6.30
2017-12-26T10:12:52.102Z,6.10
2017-12-26T10:15:19.638Z,6.10
2017-12-26T10:17:47.912Z,6.20
2017-12-26T10:20:16.226Z,6.20
2017-12-26T10:22:43.998Z,6.20
2017-12-26T10:25:11.748Z,6.20
2017-12-26T10:27:39.326Z,6.20
2017-12-26T10:30:07.049Z,6.20
2017-12-26T10:32:35.485Z,6.10
2017-12-26T10:35:04.362Z,6.10
2017-12-26T10:37:32.863Z,6.10
2017-12-26T10:40:00.381Z,6.10
2017-12-26T10:42:27.910Z,6.10
2017-12-26T10:44:55.531Z,6.10
2017-12-26T10:47:23.064Z,6.10
2017-12-26T10:49:51.479Z,6.10
2017-12-26T10:52:19.052Z,6.10
2017-12-26T10:54:46.574Z,6.20
2017-12-26T10:57:14.144Z,6.20
2017-12-26T10:59:41.717Z,6.20
2017-12-26T11:02:09.259Z,6.30
2017-12-26T11:04:36.769Z,6.20
2017-12-26T11:07:05.066Z,6.30
2017-12-26T11:09:32.718Z,6.30
2017-12-26T11:12:00.259Z,6.30
2017-12-26T11:14:27.780Z,6.30
2017-12-26T11:16:55.350Z,6.30
2017-12-26T11:19:22.867Z,6.30
2017-12-26T11:21:50.403Z,6.30
2017-12-26T11:24:18.042Z,6.20
2017-12-26T11:26:45.563Z,6.30
2017-12-26T11:29:13.964Z,6.30
2017-12-26T11:31:41.511Z,6.30
2017-12-26T11:34:09.918Z,6.30
2017-12-26T11:36:37.470Z,6.30
2017-12-26T11:39:05.032Z,6.30
2017-12-26T11:41:32.590Z,6.40
2017-12-26T11:44:00.118Z,6.30
2017-12-26T11:46:28.428Z,6.30
2017-12-26T11:48:56.190Z,6.20
2017-12-26T11:51:24.176Z,6.30
2017-12-26T11:53:52.116Z,6.30
2017-12-26T11:56:19.802Z,6.30
2017-12-26T11:58:47.344Z,6.30
2017-12-26T12:01:14.876Z,6.30
2017-12-26T12:03:42.403Z,6.30
2017-12-26T12:06:09.936Z,6.20
2017-12-26T12:08:37.481Z,6.20
2017-12-26T12:11:05.008Z,6.30
2017-12-26T12:13:32.526Z,6.30
2017-12-26T12:16:00.056Z,6.30
2017-12-26T12:18:28.341Z,6.30
2017-12-26T12:20:55.887Z,6.30
2017-12-26T12:23:24.175Z,6.20
2017-12-26T12:25:52.488Z,6.30
2017-12-26T12:28:20.118Z,6.30
2017-12-26T12:30:48.877Z,6.30
2017-12-26T12:33:16.404Z,6.30
2017-12-26T12:35:43.961Z,6.20
2017-12-26T12:38:11.509Z,6.30
2017-12-26T12:40:39.130Z,6.40
2017-12-26T12:43:06.647Z,6.30
2017-12-26T12:45:34.191Z,6.40
2017-12-26T12:48:01.704Z,6.40
2017-12-26T12:50:29.770Z,6.40
2017-12-26T12:52:58.630Z,6.40
2017-12-26T12:55:26.323Z,6.40
2017-12-26T12:57:53.900Z,6.40
2017-12-26T13:00:22.191Z,6.40
2017-12-26T13:02:50.519Z,6.40
2017-12-26T13:05:18.073Z,6.40
2017-12-26T13:07:45.612Z,6.30
2017-12-26T13:10:13.135Z,6.30
2017-12-26T13:12:40.705Z,6.30
2017-12-26T13:15:08.982Z,6.40
2017-12-26T13:17:37.583Z,6.50
2017-12-26T13:20:05.167Z,6.40
2017-12-26T13:22:32.711Z,6.50
2017-12-26T13:25:00.281Z,6.50
2017-12-26T13:27:27.832Z,6.70
2017-12-26T13:29:55.353Z,6.60
2017-12-26T13:32:22.894Z,6.60
2017-12-26T13:34:50.403Z,6.50
2017-12-26T13:37:18.694Z,6.40
2017-12-26T13:39:46.252Z,6.40
2017-12-26T13:42:13.819Z,6.30
2017-12-26T13:44:41.368Z,6.30
2017-12-26T13:47:08.932Z,6.20
2017-12-26T13:49:36.450Z,6.30
2017-12-26T13:52:03.979Z,6.30
2017-12-26T13:54:31.533Z,6.30
2017-12-26T13:56:59.107Z,6.10
2017-12-26T13:59:26.645Z,6.20
2017-12-26T14:01:54.220Z,6.20
2017-12-26T14:04:21.754Z,6.20
2017-12-26T14:06:49.328Z,6.10
2017-12-26T14:09:16.889Z,6.10
2017-12-26T14:11:44.402Z,6.10
2017-12-26T14:14:12.011Z,6.20
2017-12-26T14:16:39.533Z,6.20
2017-12-26T14:19:07.840Z,6.00
2017-12-26T14:21:35.397Z,6.00
2017-12-26T14:24:02.961Z,5.90
2017-12-26T14:26:30.498Z,5.90
2017-12-26T14:28:58.797Z,5.90
2017-12-26T14:31:26.307Z,5.90
2017-12-26T14:33:53.831Z,5.90
2017-12-26T14:36:21.340Z,5.80
2017-12-26T14:38:48.872Z,5.90
2017-12-26T14:41:16.405Z,5.80
2017-12-26T14:43:43.989Z,5.80
2017-12-26T14:46:11.478Z,5.80
2017-12-26T14:48:38.998Z,5.60
2017-12-26T14:51:06.526Z,5.70
2017-12-26T14:53:34.798Z,5.70
2017-12-26T14:56:03.087Z,5.70
2017-12-26T14:58:30.658Z,5.70
2017-12-26T15:00:58.207Z,5.70
2017-12-26T15:03:25.782Z,5.80
2017-12-26T15:05:53.349Z,5.70
2017-12-26T15:08:20.849Z,5.70
2017-12-26T15:10:48.397Z,5.70
2017-12-26T15:13:15.927Z,5.60
2017-12-26T15:15:43.482Z,5.60
2017-12-26T15:18:11.048Z,5.70
2017-12-26T15:20:39.319Z,5.60
2017-12-26T15:23:06.837Z,5.60
2017-12-26T15:25:34.439Z,5.50
2017-12-26T15:28:02.525Z,5.60
2017-12-26T15:30:30.078Z,5.50
2017-12-26T15:32:57.577Z,5.50
2017-12-26T15:35:25.103Z,5.70
2017-12-26T15:37:52.658Z,5.60
2017-12-26T15:40:20.161Z,5.60
2017-12-26T15:42:47.760Z,5.60
2017-12-26T15:45:15.824Z,5.60
2017-12-26T15:47:44.119Z,5.60
2017-12-26T15:50:11.680Z,5.60
2017-12-26T15:52:39.214Z,5.60
2017-12-26T15:55:07.484Z,5.50
2017-12-26T15:57:35.004Z,5.50
2017-12-26T16:00:02.524Z,5.60
2017-12-26T16:02:31.006Z,5.60
2017-12-26T16:04:59.400Z,5.60
2017-12-26T16:07:26.934Z,5.60
2017-12-26T16:09:55.251Z,5.60
2017-12-26T16:12:22.804Z,5.60
2017-12-26T16:14:50.367Z,5.50
2017-12-26T16:17:17.927Z,5.40
2017-12-26T16:19:45.436Z,5.40
2017-12-26T16:22:12.947Z,5.30
2017-12-26T16:24:40.477Z,5.40
2017-12-26T16:27:08.785Z,5.20
2017-12-26T16:29:36.337Z,5.20
2017-12-26T16:32:03.844Z,5.30
2017-12-26T16:34:31.375Z,5.30
2017-12-26T16:36:58.894Z,5.30
2017-12-26T16:39:27.348Z,5.20
2017-12-26T16:41:54.896Z,5.20
2017-12-26T16:44:22.525Z,5.10
2017-12-26T16:46:50.086Z,5.10
2017-12-26T16:49:17.649Z,5.00
2017-12-26T16:51:45.229Z,5.20
2017-12-26T16:54:12.778Z,5.00
2017-12-26T16:56:40.292Z,5.10
2017-12-26T16:59:08.619Z,5.10
2017-12-26T17:01:36.173Z,5.10
2017-12-26T17:04:03.711Z,5.20
2017-12-26T17:06:31.287Z,5.10
2017-12-26T17:08:58.854Z,5.10
2017-12-26T17:11:26.378Z,5.10
2017-12-26T17:13:54.689Z,5.10
2017-12-26T17:16:22.199Z,5.00
2017-12-26T17:18:49.803Z,5.10
2017-12-26T17:21:17.381Z,5.00
2017-12-26T17:23:44.897Z,5.00
2017-12-26T17:26:13.203Z,5.00
2017-12-26T17:28:40.777Z,5.00
2017-12-26T17:31:08.307Z,5.00
2017-12-26T17:33:36.615Z,4.90
2017-12-26T17:36:04.184Z,4.90
2017-12-26T17:38:31.756Z,4.90
2017-12-26T17:40:59.323Z,5.00
2017-12-26T17:43:26.893Z,4.90
2017-12-26T17:45:54.436Z,4.80
2017-12-26T17:48:22.067Z,4.80
2017-12-26T17:50:49.657Z,4.90
2017-12-26T17:53:17.260Z,5.00
2017-12-26T17:55:46.709Z,4.80
2017-12-26T17:58:14.564Z,4.80
2017-12-26T18:00:42.246Z,4.80
2017-12-26T18:03:10.593Z,4.80
2017-12-26T18:05:38.921Z,4.70
2017-12-26T18:08:06.712Z,4.70
2017-12-26T18:10:34.234Z,4.80
2017-12-26T18:13:01.892Z,4.90
2017-12-26T18:15:29.439Z,4.80
2017-12-26T18:17:56.973Z,4.80
2017-12-26T18:20:25.289Z,4.90
2017-12-26T18:22:52.821Z,4.90
2017-12-26T18:25:21.122Z,4.90
2017-12-26T18:27:49.003Z,4.90
2017-12-26T18:30:16.666Z,5.00
2017-12-26T18:32:44.418Z,5.00
2017-12-26T18:35:12.086Z,5.00
2017-12-26T18:37:41.811Z,5.00
2017-12-26T18:40:12.965Z,5.20
2017-12-26T18:42:41.312Z,5.20
2017-12-26T18:45:08.834Z,5.20
2017-12-26T18:47:36.443Z,5.10
2017-12-26T18:50:04.007Z,5.00
2017-12-26T18:52:32.590Z,5.10
2017-12-26T18:55:00.260Z,5.10
2017-12-26T18:57:27.817Z,5.10
2017-12-26T18:59:55.460Z,5.20
2017-12-26T19:02:23.177Z,5.20
2017-12-26T19:04:51.584Z,5.30
2017-12-26T19:07:20.002Z,5.30
2017-12-26T19:09:48.801Z,5.30
2017-12-26T19:12:16.418Z,5.30
2017-12-26T19:14:44.729Z,5.40
2017-12-26T19:17:12.247Z,5.40
2017-12-26T19:19:39.947Z,5.40
2017-12-26T19:22:07.496Z,5.40
2017-12-26T19:24:35.206Z,5.30
2017-12-26T19:27:02.933Z,5.30
2017-12-26T19:29:30.648Z,5.20
2017-12-26T19:31:58.302Z,5.30
2017-12-26T19:34:25.948Z,5.40
2017-12-26T19:36:53.602Z,5.30
2017-12-26T19:39:21.501Z,5.20
2017-12-26T19:41:49.046Z,5.20
2017-12-26T19:44:16.578Z,5.10
2017-12-26T19:46:44.139Z,5.10
2017-12-26T19:49:11.663Z,5.00
2017-12-26T19:51:39.952Z,5.00
2017-12-26T19:54:08.526Z,5.00
2017-12-26T19:56:36.826Z,4.90
2017-12-26T19:59:04.723Z,4.90
2017-12-26T20:01:32.384Z,4.80
2017-12-26T20:03:59.926Z,4.80
2017-12-26T20:06:27.936Z,4.80
2017-12-26T20:08:55.879Z,4.80
2017-12-26T20:11:23.648Z,4.80
2017-12-26T20:13:51.197Z,4.70
2017-12-26T20:16:18.756Z,4.60
2017-12-26T20:18:46.823Z,4.60
2017-12-26T20:21:14.498Z,4.60
2017-12-26T20:23:42.049Z,4.70
2017-12-26T20:26:09.626Z,4.60
2017-12-26T20:28:44.029Z,4.70
2017-12-26T20:31:11.619Z,4.80
2017-12-26T20:33:39.310Z,4.70
2017-12-26T20:36:07.239Z,4.70
2017-12-26T20:38:35.606Z,4.70
2017-12-26T20:41:04.817Z,4.70
2017-12-26T20:43:32.474Z,4.70
2017-12-26T20:46:00.012Z,4.70
2017-12-26T20:48:27.563Z,4.70
2017-12-26T20:50:55.860Z,4.60
2017-12-26T20:53:23.407Z,4.60
2017-12-26T20:55:51.820Z,4.40
2017-12-26T20:58:19.366Z,4.40
2017-12-26T21:00:46.923Z,4.40
2017-12-26T21:03:14.588Z,4.30
2017-12-26T21:05:42.218Z,4.20
2017-12-26T21:08:10.034Z,4.10
2017-12-26T21:10:38.006Z,4.20
2017-12-26T21:13:05.873Z,4.30
2017-12-26T21:15:34.858Z,4.30
2017-12-26T21:18:04.230Z,4.40
2017-12-26T21:20:32.185Z,4.30
2017-12-26T21:22:59.760Z,4.20
2017-12-26T21:25:27.726Z,4.10
2017-12-26T21:27:56.261Z,4.10
2017-12-26T21:30:23.922Z,4.00
2017-12-26T21:32:51.889Z,4.10
2017-12-26T21:35:20.926Z,4.00
2017-12-26T21:37:49.570Z,4.10
2017-12-26T21:40:17.641Z,4.10
2017-12-26T21:42:45.227Z,4.00
2017-12-26T21:45:13.217Z,4.00
2017-12-26T21:47:41.114Z,4.00
2017-12-26T21:50:09.707Z,4.00
2017-12-26T21:52:37.493Z,4.00
2017-12-26T21:55:05.462Z,4.00
2017-12-26T21:57:34.151Z,3.80
2017-12-26T22:00:01.728Z,3.80
2017-12-26T22:02:29.528Z,3.90
2017-12-26T22:04:57.334Z,3.90
2017-12-26T22:07:25.096Z,3.80
2017-12-26T22:09:52.769Z,3.70
2017-12-26T22:12:20.285Z,3.70
2017-12-26T22:14:48.275Z,3.60
2017-12-26T22:17:16.377Z,3.60
2017-12-26T22:19:44.842Z,3.60
2017-12-26T22:22:12.393Z,3.60
2017-12-26T22:24:39.989Z,3.70
2017-12-26T22:27:08.054Z,3.60
2017-12-26T22:29:37.458Z,3.70
2017-12-26T22:32:06.352Z,3.80
2017-12-26T22:34:34.738Z,3.60
2017-12-26T22:37:02.287Z,3.60
2017-12-26T22:39:30.081Z,3.60
2017-12-26T22:41:59.257Z,3.80
2017-12-26T22:44:26.925Z,3.70
2017-12-26T22:46:55.420Z,3.70
2017-12-26T22:49:23.070Z,3.70
2017-12-26T22:51:50.726Z,3.80
2017-12-26T22:54:18.348Z,3.70
2017-12-26T22:56:46.773Z,3.80
2017-12-26T22:59:14.344Z,3.80
2017-12-26T23:01:41.997Z,3.80
2017-12-26T23:04:09.508Z,3.60
2017-12-26T23:06:37.828Z,3.30
2017-12-26T23:09:05.353Z,3.40
2017-12-26T23:11:33.643Z,3.10
2017-12-26T23:14:07.013Z,3.10
2017-12-26T23:16:40.215Z,3.20
2017-12-26T23:19:08.524Z,3.20
2017-12-26T23:21:36.088Z,3.20
2017-12-26T23:24:09.426Z,3.30
2017-12-26T23:26:42.606Z,3.40
2017-12-26T23:29:15.843Z,3.40
2017-12-26T23:31:49.858Z,3.50
2017-12-26T23:34:23.918Z,3.50
2017-12-26T23:36:57.151Z,3.50
2017-12-26T23:39:31.065Z,3.90
2017-12-26T23:42:05.090Z,4.00
2017-12-26T23:44:39.082Z,3.90
2017-12-26T23:47:12.348Z,3.90
2017-12-26T23:49:45.494Z,3.90
2017-12-26T23:52:18.657Z,3.80
2017-12-26T23:54:51.949Z,3.80
2017-12-26T23:57:25.169Z,3.80
